Thursday, November 27, 2014
20:47 UTC
  |  Log In   |  Register Free
Airport Search:

Alpena County Regional Airport
(KAPN)

FAA data valid effective November 13, 2014 - January 08, 2015 (unless otherwise noted).

 
 
 
 
 
 
 
 
 
 
 
 
 
 

Current Aviation Weather for Alpena County Regional Airport (KAPN)

The most recent METAR observation for KAPN was updated at: 2008
METAR Summary (Translated METAR)
KAPN
271954Z AUTO 31012KT 10SM OVC030 M05/M11 A3017 RMK AO2 SLP228 T10501106
KPZQ
271955Z AUTO 28009G21KT 7SM BKN031 M05/M09 A3018 RMK AO2 T10541091
(22.5 nm NW from KAPN)
KOSC
271953Z AUTO 31014G19KT 10SM BKN029 OVC120 M03/M10 A3016 RMK AO2 T10391096
(38.3 nm SE from KAPN)
TAF Summary (Translated TAF)
KAPN
271720Z 2718/2818 31011G20KT P6SM VCSH BKN035 FM271900 31011G20KT P6SM BKN035 FM280000 30007KT P6SM BKN035 FM280700 27003KT P6SM SCT035 FM281200 22004KT P6SM SCT035 FM281500 22007KT P6SM FEW040 OVC100
  Airport Weather Conditions for KAPN

 Current Weather at APN
23° F
Overcast
Northwest winds at 13.8 mph
APN NOAA Radar

Pressure: 30.17 in
Humidity: 65%
Wind: Northwest at 13.8 MPH (12 KT)
Dew Point: 12.9°F
Visibility: 10.00 mi


Airport Weather Forecast for KAPN

Translated METAR and TAF for KAPN
Translated METAR for KAPN (2042 UTC 27 November 2014)
found at http://aviationweather.gov/adds/metars/
 
METAR text: KAPN 272025Z AUTO 32012KT 10SM OVC032 M05/M11 A3018 RMK AO2 T10501106
Conditions at: KAPN (ALPENA , MI, US) observed 2025 UTC 27 November 2014
Temperature: -5.0°C (23°F)
Dewpoint: -10.6°C (13°F) [RH = 65%]
Pressure (altimeter): 30.18 inches Hg (1022.1 mb)
Winds: from the NW (320 degrees) at 14 MPH (12 knots; 6.2 m/s)
Visibility: 10 or more miles (16+ km)
Ceiling: 3200 feet AGL
Clouds: overcast cloud deck at 3200 feet AGL
Weather: automated observation with no human augmentation;
there may or may not be significant weather present at this time
Translated TAF for KAPN
Forecast for: KAPN (ALPENA , MI, US)
TAF Text: KAPN 271720Z 2718/2818 31011G20KT P6SM VCSH BKN035
Forecast period: 1800 to 1900 UTC 27 November 2014
Forecast type: FROM: standard forecast or significant change
Winds: from the NW (310 degrees) at 13 MPH (11 knots; 5.7 m/s)
gusting to 23 MPH (20 knots; 10.4 m/s)
Visibility: 6 or more miles (10+ km)
Ceiling: 3500 feet AGL
Clouds: broken clouds at 3500 feet AGL
Weather: VCSH  (showers in vicinity)
TAF Text: FM271900 31011G20KT P6SM BKN035
Forecast period: 1900 UTC 27 November 2014 to 0000 UTC 28 November 2014
Forecast type: FROM: standard forecast or significant change
Winds: from the NW (310 degrees) at 13 MPH (11 knots; 5.7 m/s)
gusting to 23 MPH (20 knots; 10.4 m/s)
Visibility: 6 or more miles (10+ km)
Ceiling: 3500 feet AGL
Clouds: broken clouds at 3500 feet AGL
Weather: no significant weather forecast for this period
TAF Text: FM280000 30007KT P6SM BKN035
Forecast period: 0000 to 0700 UTC 28 November 2014
Forecast type: FROM: standard forecast or significant change
Winds: from the WNW (300 degrees) at 8 MPH (7 knots; 3.6 m/s)
Visibility: 6 or more miles (10+ km)
Ceiling: 3500 feet AGL
Clouds: broken clouds at 3500 feet AGL
Weather: no significant weather forecast for this period
TAF Text: FM280700 27003KT P6SM SCT035
Forecast period: 0700 to 1200 UTC 28 November 2014
Forecast type: FROM: standard forecast or significant change
Winds: from the W (270 degrees) at 3 MPH (3 knots; 1.6 m/s)
Visibility: 6 or more miles (10+ km)
Clouds: scattered clouds at 3500 feet AGL
Weather: no significant weather forecast for this period
TAF Text: FM281200 22004KT P6SM SCT035
Forecast period: 1200 to 1500 UTC 28 November 2014
Forecast type: FROM: standard forecast or significant change
Winds: from the SW (220 degrees) at 5 MPH (4 knots; 2.1 m/s)
Visibility: 6 or more miles (10+ km)
Clouds: scattered clouds at 3500 feet AGL
Weather: no significant weather forecast for this period
TAF Text: FM281500 22007KT P6SM FEW040 OVC100
Forecast period: 1500 to 1800 UTC 28 November 2014
Forecast type: FROM: standard forecast or significant change
Winds: from the SW (220 degrees) at 8 MPH (7 knots; 3.6 m/s)
Visibility: 6 or more miles (10+ km)
Ceiling: 10000 feet AGL
Clouds: few clouds at 4000 feet AGL
overcast cloud deck at 10000 feet AGL
Weather: no significant weather forecast for this period

Find All Airport Services Find A Hotel Find A Rental Car Find A Golf Course Find A Restaurant $100 Hamburger



FBO's on the Field
FBO Company Facility Photos Services Transportation Aviation Fuel Prices: Prices include tax
Catering Weather Repair Courtesy Rental Type 100LL JetA JetA+ MOGAS 8087
 
Aviation Express Inc.

Currently rated 1.2 by 1 person
FS:Shell
Last Updated: Nov-19
Login to update fuel prices
SS:
Contact Aviation Express Inc.More FBO Information
 
Aviation North

This FBO has not yet been rated
FS:Avfuel
Last Updated: Nov-10
Login to update fuel prices
SS:
Contact Aviation NorthMore FBO Information
 
Add another FBO Facility Photos Catering Weather Repair Courtesy Rental Type 100LL JetA JetA+ MOGAS 8087
Services Transportation Aviation Fuel Prices: Prices include tax


model-print
model-print
model-print
model-print